createdAt,value
2022-10-02T00:00:01.732Z,6.11
2022-10-02T00:00:36.038Z,5.79
2022-10-02T00:00:58.633Z,7.24
2022-10-02T00:01:21.138Z,6.11
2022-10-02T00:01:55.977Z,7.88
2022-10-02T00:02:28.032Z,6.43
2022-10-02T00:03:00.792Z,6.11
2022-10-02T00:03:32.567Z,5.47
2022-10-02T00:03:55.263Z,7.24
2022-10-02T00:04:17.852Z,6.43
2022-10-02T00:04:52.189Z,6.11
2022-10-02T00:05:23.984Z,5.79
2022-10-02T00:05:56.164Z,7.24
2022-10-02T00:06:28.157Z,4.98
2022-10-02T00:07:00.699Z,5.79
2022-10-02T00:07:32.379Z,4.66
2022-10-02T00:07:54.947Z,6.11
2022-10-02T00:08:21.986Z,6.43
2022-10-02T00:08:52.006Z,4.02
2022-10-02T00:09:24.072Z,4.98
2022-10-02T00:09:55.991Z,5.47
2022-10-02T00:10:27.945Z,6.11
2022-10-02T00:10:59.947Z,4.66
2022-10-02T00:11:32.063Z,6.11
2022-10-02T00:11:54.707Z,4.98
2022-10-02T00:12:17.248Z,4.02
2022-10-02T00:12:52.214Z,1.12
2022-10-02T00:13:24.374Z,4.02
2022-10-02T00:13:56.273Z,4.66
2022-10-02T00:14:27.925Z,4.66
2022-10-02T00:15:01.475Z,2.09
2022-10-02T00:15:32.494Z,4.98
2022-10-02T00:15:55.279Z,6.43
2022-10-02T00:16:17.962Z,2.09
2022-10-02T00:16:52.100Z,4.02
2022-10-02T00:17:24.044Z,2.09
2022-10-02T00:17:56.107Z,4.34
2022-10-02T00:18:28.291Z,3.54
2022-10-02T00:19:00.201Z,5.47
2022-10-02T00:19:32.637Z,6.11
2022-10-02T00:19:55.285Z,4.66
2022-10-02T00:20:17.622Z,2.89
2022-10-02T00:20:52.184Z,4.66
2022-10-02T00:21:23.947Z,4.02
2022-10-02T00:21:55.978Z,4.34
2022-10-02T00:22:27.932Z,3.54
2022-10-02T00:23:00.240Z,2.89
2022-10-02T00:23:32.300Z,4.02
2022-10-02T00:23:54.982Z,4.02
2022-10-02T00:24:17.897Z,5.47
2022-10-02T00:24:51.889Z,2.09
2022-10-02T00:25:24.011Z,4.66
2022-10-02T00:25:56.145Z,7.56
2022-10-02T00:26:28.074Z,6.92
2022-10-02T00:27:00.048Z,4.98
2022-10-02T00:27:32.680Z,5.47
2022-10-02T00:27:55.420Z,7.24
2022-10-02T00:28:17.783Z,7.56
2022-10-02T00:28:53.027Z,6.43
2022-10-02T00:29:24.133Z,9.33
2022-10-02T00:29:56.791Z,3.21
2022-10-02T00:30:28.241Z,5.79
2022-10-02T00:31:00.146Z,6.43
2022-10-02T00:31:32.102Z,4.66
2022-10-02T00:31:54.956Z,4.66
2022-10-02T00:32:17.909Z,6.92
2022-10-02T00:32:52.217Z,6.11
2022-10-02T00:33:24.602Z,7.88
2022-10-02T00:33:55.982Z,7.88
2022-10-02T00:34:28.359Z,7.56
2022-10-02T00:35:00.363Z,7.88
2022-10-02T00:35:32.099Z,6.43
2022-10-02T00:35:55.034Z,6.11
2022-10-02T00:36:17.413Z,8.69
2022-10-02T00:36:51.995Z,6.92
2022-10-02T00:37:24.245Z,6.43
2022-10-02T00:37:56.384Z,4.34
2022-10-02T00:38:28.119Z,6.92
2022-10-02T00:38:59.861Z,6.43
2022-10-02T00:39:32.398Z,5.47
2022-10-02T00:39:54.930Z,4.98
2022-10-02T00:40:17.430Z,2.89
2022-10-02T00:40:51.973Z,6.43
2022-10-02T00:41:24.106Z,6.11
2022-10-02T00:41:56.426Z,5.47
2022-10-02T00:42:28.074Z,4.02
2022-10-02T00:43:00.027Z,6.11
2022-10-02T00:43:31.877Z,5.47
2022-10-02T00:43:54.741Z,4.02
2022-10-02T00:44:17.089Z,4.66
2022-10-02T00:44:52.065Z,2.09
2022-10-02T00:45:23.870Z,2.57
2022-10-02T00:45:56.326Z,1.44
2022-10-02T00:46:27.849Z,4.66
2022-10-02T00:47:00.095Z,7.24
2022-10-02T00:47:31.773Z,5.47
2022-10-02T00:47:54.630Z,5.47
2022-10-02T00:48:17.179Z,3.54
2022-10-02T00:48:51.966Z,0
2022-10-02T00:49:24.097Z,1.12
2022-10-02T00:49:55.901Z,1.44
2022-10-02T00:50:28.045Z,.32
2022-10-02T00:51:00.016Z,1.12
2022-10-02T00:51:32.612Z,1.77
2022-10-02T00:51:55.297Z,2.09
2022-10-02T00:52:17.725Z,2.09
2022-10-02T00:52:52.311Z,4.02
2022-10-02T00:53:24.692Z,1.44
2022-10-02T00:53:57.272Z,3.21
2022-10-02T00:54:28.010Z,2.57
2022-10-02T00:54:59.906Z,3.21
2022-10-02T00:55:31.897Z,4.66
2022-10-02T00:55:54.539Z,5.47
2022-10-02T00:56:18.342Z,.32
2022-10-02T00:56:51.910Z,.64
2022-10-02T00:57:24.032Z,6.92
2022-10-02T00:57:55.962Z,6.43
2022-10-02T00:58:27.998Z,6.11
2022-10-02T00:59:00.501Z,2.09
2022-10-02T00:59:32.545Z,1.44
2022-10-02T00:59:55.432Z,3.21
2022-10-02T01:00:17.738Z,.64
2022-10-02T01:00:52.781Z,.32
2022-10-02T01:01:23.877Z,2.89
2022-10-02T01:01:55.993Z,2.57
2022-10-02T01:02:27.800Z,4.66
2022-10-02T01:03:01.227Z,2.89
2022-10-02T01:03:32.290Z,1.44
2022-10-02T01:03:54.878Z,1.12
2022-10-02T01:04:18.307Z,1.44
2022-10-02T01:04:51.962Z,6.11
2022-10-02T01:05:23.857Z,7.88
2022-10-02T01:05:56.110Z,4.66
2022-10-02T01:06:28.651Z,3.54
2022-10-02T01:07:00.018Z,2.89
2022-10-02T01:07:32.808Z,2.57
2022-10-02T01:07:55.531Z,4.02
2022-10-02T01:08:17.920Z,9.65
2022-10-02T01:08:51.858Z,4.34
2022-10-02T01:09:23.897Z,2.09
2022-10-02T01:09:55.909Z,2.09
2022-10-02T01:10:27.909Z,9.65
2022-10-02T01:10:59.943Z,4.02
2022-10-02T01:11:31.898Z,1.44
2022-10-02T01:11:54.626Z,1.12
2022-10-02T01:12:17.232Z,2.09
2022-10-02T01:12:51.930Z,4.34
2022-10-02T01:13:24.867Z,8.69
2022-10-02T01:13:55.916Z,7.88
2022-10-02T01:14:28.630Z,6.11
2022-10-02T01:15:00.781Z,5.47
2022-10-02T01:15:32.360Z,5.79
2022-10-02T01:15:55.117Z,4.02
2022-10-02T01:16:17.636Z,5.47
2022-10-02T01:16:51.912Z,5.47
2022-10-02T01:17:23.848Z,7.88
2022-10-02T01:17:56.101Z,5.79
2022-10-02T01:18:28.082Z,6.43
2022-10-02T01:18:59.971Z,4.34
2022-10-02T01:19:31.942Z,4.34
2022-10-02T01:19:54.711Z,7.56
2022-10-02T01:20:17.098Z,3.54
2022-10-02T01:20:51.989Z,5.47
2022-10-02T01:21:24.699Z,8.69
2022-10-02T01:21:56.091Z,8.20
2022-10-02T01:22:28.323Z,6.11
2022-10-02T01:22:59.928Z,7.56
2022-10-02T01:23:32.180Z,6.11
2022-10-02T01:23:54.792Z,6.11
2022-10-02T01:24:17.290Z,7.88
2022-10-02T01:24:53.052Z,9.01
2022-10-02T01:25:24.419Z,2.09
2022-10-02T01:25:56.397Z,4.98
2022-10-02T01:26:28.249Z,6.11
2022-10-02T01:27:00.433Z,7.24
2022-10-02T01:27:33.688Z,5.47
2022-10-02T01:27:54.799Z,4.02
2022-10-02T01:28:17.358Z,6.43
2022-10-02T01:28:52.152Z,7.88
2022-10-02T01:29:27.493Z,6.43
2022-10-02T01:29:49.966Z,6.43
2022-10-02T01:30:28.208Z,5.79
2022-10-02T01:30:59.765Z,4.66
2022-10-02T01:31:31.767Z,4.02
2022-10-02T01:31:55.640Z,.32
2022-10-02T01:32:17.466Z,5.47
2022-10-02T01:32:51.859Z,4.34
2022-10-02T01:33:23.730Z,1.12
2022-10-02T01:33:55.857Z,1.12
2022-10-02T01:34:27.765Z,1.44
2022-10-02T01:35:00.023Z,6.43
2022-10-02T01:35:31.907Z,1.12
2022-10-02T01:35:54.664Z,2.89
2022-10-02T01:36:16.931Z,4.98
2022-10-02T01:36:52.010Z,5.47
2022-10-02T01:37:23.767Z,4.66
2022-10-02T01:37:55.740Z,5.47
2022-10-02T01:38:28.107Z,4.66
2022-10-02T01:38:59.960Z,3.54
2022-10-02T01:39:31.888Z,2.57
2022-10-02T01:39:55.091Z,2.57
2022-10-02T01:40:17.450Z,1.12
2022-10-02T01:40:51.914Z,0
2022-10-02T01:41:23.760Z,1.77
2022-10-02T01:41:55.768Z,1.12
2022-10-02T01:42:27.797Z,0
2022-10-02T01:42:59.917Z,1.44
2022-10-02T01:43:31.847Z,.64
2022-10-02T01:43:54.643Z,.64
2022-10-02T01:44:16.765Z,.32
2022-10-02T01:44:51.937Z,1.44
2022-10-02T01:45:23.905Z,1.44
2022-10-02T01:45:55.753Z,1.12
2022-10-02T01:46:27.807Z,3.54
2022-10-02T01:46:59.870Z,2.57
2022-10-02T01:47:31.849Z,1.44
2022-10-02T01:47:54.762Z,1.44
2022-10-02T01:48:17.268Z,2.89
2022-10-02T01:48:51.838Z,5.47
2022-10-02T01:49:23.817Z,2.09
2022-10-02T01:49:55.877Z,.32
2022-10-02T01:50:27.780Z,.64
2022-10-02T01:51:00.278Z,2.09
2022-10-02T01:51:31.739Z,.32
2022-10-02T01:51:54.557Z,1.44
2022-10-02T01:52:16.941Z,3.54
2022-10-02T01:52:51.868Z,2.89
2022-10-02T01:53:24.373Z,1.77
2022-10-02T01:53:55.801Z,5.47
2022-10-02T01:54:27.965Z,3.21
2022-10-02T01:54:59.797Z,3.21
2022-10-02T01:55:31.908Z,4.02
2022-10-02T01:55:54.662Z,.64
2022-10-02T01:56:17.085Z,1.44
2022-10-02T01:56:51.744Z,3.54
2022-10-02T01:57:23.845Z,2.09
2022-10-02T01:57:55.817Z,2.09
2022-10-02T01:58:27.840Z,1.44
2022-10-02T01:58:59.773Z,1.44
2022-10-02T01:59:32.047Z,0
2022-10-02T01:59:54.804Z,.32
2022-10-02T02:00:17.122Z,1.44
2022-10-02T02:00:51.991Z,6.43
2022-10-02T02:01:23.951Z,5.47
2022-10-02T02:01:56.097Z,2.09
2022-10-02T02:02:27.933Z,1.77
2022-10-02T02:03:31.856Z,1.44
2022-10-02T02:03:54.558Z,2.09
2022-10-02T02:04:17.019Z,0
2022-10-02T02:04:51.900Z,1.12
2022-10-02T02:05:23.727Z,2.09
2022-10-02T02:05:55.888Z,1.44
2022-10-02T02:06:27.842Z,2.09
2022-10-02T02:06:59.916Z,1.44
2022-10-02T02:07:31.758Z,1.44
2022-10-02T02:07:54.530Z,.32
2022-10-02T02:08:16.860Z,2.57
2022-10-02T02:08:52.406Z,4.34
2022-10-02T02:09:23.738Z,.64
2022-10-02T02:09:55.872Z,0
2022-10-02T02:10:27.956Z,2.57
2022-10-02T02:10:59.918Z,.32
2022-10-02T02:11:31.801Z,3.54
2022-10-02T02:11:54.654Z,6.43
2022-10-02T02:12:16.975Z,1.12
2022-10-02T02:12:51.808Z,1.77
2022-10-02T02:13:26.288Z,4.66
2022-10-02T02:13:55.859Z,1.12
2022-10-02T02:14:27.855Z,1.77
2022-10-02T02:15:02.234Z,1.44
2022-10-02T02:15:31.722Z,1.44
2022-10-02T02:15:54.457Z,2.09
2022-10-02T02:16:18.400Z,.64
2022-10-02T02:16:51.788Z,4.02
2022-10-02T02:17:24.086Z,1.12
2022-10-02T02:17:55.696Z,6.43
2022-10-02T02:18:27.946Z,2.09
2022-10-02T02:19:00.252Z,1.44
2022-10-02T02:19:32.177Z,2.09
2022-10-02T02:19:55.729Z,1.12
2022-10-02T02:20:18.244Z,.64
2022-10-02T02:20:51.942Z,5.47
2022-10-02T02:21:24.028Z,5.47
2022-10-02T02:21:55.849Z,5.47
2022-10-02T02:22:27.834Z,3.21
2022-10-02T02:22:59.976Z,8.69
2022-10-02T02:23:32.001Z,7.24
2022-10-02T02:23:54.614Z,4.98
2022-10-02T02:24:16.915Z,.64
2022-10-02T02:24:51.952Z,0
2022-10-02T02:25:24.061Z,1.77
2022-10-02T02:25:55.833Z,6.43
2022-10-02T02:26:27.919Z,4.66
2022-10-02T02:26:59.844Z,4.66
2022-10-02T02:27:31.835Z,4.02
2022-10-02T02:27:55.173Z,4.02
2022-10-02T02:28:17.539Z,2.57
2022-10-02T02:28:51.703Z,2.89
2022-10-02T02:29:23.912Z,1.44
2022-10-02T02:29:55.715Z,4.02
2022-10-02T02:30:27.847Z,4.98
2022-10-02T02:30:59.854Z,1.44
2022-10-02T02:31:32.001Z,2.09
2022-10-02T02:31:54.907Z,1.77
2022-10-02T02:32:17.199Z,2.57
2022-10-02T02:32:51.883Z,2.09
2022-10-02T02:33:23.824Z,5.79
2022-10-02T02:33:55.887Z,6.11
2022-10-02T02:34:27.953Z,7.88
2022-10-02T02:34:59.709Z,6.11
2022-10-02T02:35:34.192Z,3.54
2022-10-02T02:35:54.601Z,4.34
2022-10-02T02:36:16.967Z,4.02
2022-10-02T02:36:51.889Z,7.24
2022-10-02T02:37:23.685Z,4.02
2022-10-02T02:37:56.107Z,4.02
2022-10-02T02:38:27.848Z,4.98
2022-10-02T02:38:59.996Z,4.02
2022-10-02T02:39:31.762Z,7.24
2022-10-02T02:39:54.753Z,7.24
2022-10-02T02:40:16.759Z,3.54
2022-10-02T02:40:51.812Z,6.92
2022-10-02T02:41:23.960Z,7.88
2022-10-02T02:41:55.941Z,6.43
2022-10-02T02:42:27.829Z,10.13
2022-10-02T02:42:59.991Z,7.24
2022-10-02T02:43:31.786Z,5.47
2022-10-02T02:43:55.265Z,7.56
2022-10-02T02:44:17.597Z,3.54
2022-10-02T02:44:51.880Z,2.09
2022-10-02T02:45:23.951Z,2.57
2022-10-02T02:45:55.711Z,4.02
2022-10-02T02:46:27.859Z,2.89
2022-10-02T02:46:59.694Z,2.09
2022-10-02T02:47:31.832Z,2.09
2022-10-02T02:47:54.887Z,1.77
2022-10-02T02:48:17.235Z,5.47
2022-10-02T02:48:51.890Z,6.11
2022-10-02T02:49:23.799Z,6.11
2022-10-02T02:49:55.662Z,6.92
2022-10-02T02:50:27.803Z,11.10
2022-10-02T02:50:59.911Z,8.20
2022-10-02T02:51:31.661Z,6.43
2022-10-02T02:51:54.617Z,4.66
2022-10-02T02:52:17.022Z,9.33
2022-10-02T02:52:51.811Z,7.56
2022-10-02T02:53:23.726Z,6.11
2022-10-02T02:53:56.030Z,6.11
2022-10-02T02:54:27.679Z,6.11
2022-10-02T02:54:59.837Z,6.11
2022-10-02T02:55:31.800Z,5.47
2022-10-02T02:55:54.547Z,7.88
2022-10-02T02:56:16.829Z,8.69
2022-10-02T02:56:51.881Z,7.24
2022-10-02T02:57:23.879Z,10.13
2022-10-02T02:57:55.813Z,8.20
2022-10-02T02:58:27.794Z,8.69
2022-10-02T02:58:59.833Z,6.11
2022-10-02T02:59:31.788Z,7.24
2022-10-02T02:59:55.612Z,4.98
2022-10-02T03:00:17.951Z,3.54
2022-10-02T03:00:51.711Z,.64
2022-10-02T03:01:23.899Z,3.54
2022-10-02T03:01:55.768Z,1.12
2022-10-02T03:02:27.882Z,7.24
2022-10-02T03:03:26.217Z,2.57
2022-10-02T03:04:00.384Z,5.47
2022-10-02T03:04:36.038Z,2.09
2022-10-02T03:04:58.569Z,2.09
2022-10-02T03:05:21.071Z,4.02
2022-10-02T03:05:55.860Z,4.02
2022-10-02T03:06:27.887Z,1.12
2022-10-02T03:07:00.320Z,1.44
2022-10-02T03:07:32.301Z,2.57
2022-10-02T03:07:54.961Z,2.09
2022-10-02T03:08:17.264Z,5.79
2022-10-02T03:08:51.909Z,2.09
2022-10-02T03:09:25.301Z,1.77
2022-10-02T03:09:56.004Z,1.12
2022-10-02T03:10:28.250Z,1.12
2022-10-02T03:10:59.810Z,0
2022-10-02T03:11:31.851Z,1.12
2022-10-02T03:11:54.553Z,.32
2022-10-02T03:12:16.907Z,2.09
2022-10-02T03:12:52.189Z,3.21
2022-10-02T03:13:23.886Z,4.02
2022-10-02T03:13:55.818Z,2.57
2022-10-02T03:14:27.835Z,3.54
2022-10-02T03:15:01.329Z,2.09
2022-10-02T03:15:31.912Z,2.09
2022-10-02T03:15:54.649Z,.32
2022-10-02T03:16:18.930Z,2.09
2022-10-02T03:16:52.057Z,1.44
2022-10-02T03:17:24.163Z,1.12
2022-10-02T03:17:55.680Z,1.12
2022-10-02T03:18:27.994Z,2.09
2022-10-02T03:19:00.101Z,0
2022-10-02T03:19:31.981Z,.32
2022-10-02T03:19:54.752Z,2.09
2022-10-02T03:20:17.028Z,1.44
2022-10-02T03:20:53.122Z,1.77
2022-10-02T03:21:23.772Z,.32
2022-10-02T03:21:55.851Z,2.09
2022-10-02T03:22:27.729Z,1.77
2022-10-02T03:23:00.174Z,5.47
2022-10-02T03:23:32.268Z,2.09
2022-10-02T03:23:54.902Z,6.43
2022-10-02T03:24:17.248Z,2.09
2022-10-02T03:24:51.974Z,.32
2022-10-02T03:25:24.541Z,4.02
2022-10-02T03:25:55.982Z,.32
2022-10-02T03:26:28.350Z,.32
2022-10-02T03:27:00.403Z,3.21
2022-10-02T03:27:34.998Z,8.20
2022-10-02T03:27:54.774Z,1.12
2022-10-02T03:28:31.812Z,1.77
2022-10-02T03:28:55.562Z,5.79
2022-10-02T03:29:23.758Z,1.12
2022-10-02T03:29:55.843Z,1.44
2022-10-02T03:30:27.794Z,3.21
2022-10-02T03:31:00.172Z,1.44
2022-10-02T03:31:31.860Z,3.54
2022-10-02T03:31:54.595Z,1.44
2022-10-02T03:32:17.232Z,1.77
2022-10-02T03:32:51.766Z,1.12
2022-10-02T03:33:24.012Z,1.44
2022-10-02T03:33:56.017Z,2.09
2022-10-02T03:34:28.357Z,0
2022-10-02T03:34:59.648Z,2.89
2022-10-02T03:35:31.909Z,2.09
2022-10-02T03:35:54.574Z,4.66
2022-10-02T03:36:17.516Z,2.09
2022-10-02T03:36:52.450Z,2.09
2022-10-02T03:37:23.937Z,5.79
2022-10-02T03:37:56.083Z,2.09
2022-10-02T03:38:28.031Z,1.12
2022-10-02T03:39:23.743Z,1.12
2022-10-02T03:39:32.684Z,2.09
2022-10-02T03:39:55.383Z,8.69
2022-10-02T03:40:18.141Z,6.11
2022-10-02T03:40:51.755Z,7.24
2022-10-02T03:41:24.302Z,9.01
2022-10-02T03:41:55.958Z,7.88
2022-10-02T03:42:28.098Z,7.24
2022-10-02T03:42:59.745Z,9.33
2022-10-02T03:43:31.707Z,12.23
2022-10-02T03:43:54.413Z,7.24
2022-10-02T03:44:16.826Z,3.54
2022-10-02T03:44:51.866Z,7.88
2022-10-02T03:45:46.131Z,3.21
2022-10-02T03:45:55.913Z,7.24
2022-10-02T03:46:27.817Z,6.92
2022-10-02T03:46:59.765Z,7.56
2022-10-02T03:47:31.689Z,8.20
2022-10-02T03:47:54.333Z,9.33
2022-10-02T03:48:17.163Z,9.33
2022-10-02T03:48:52.585Z,9.33
2022-10-02T03:49:24.486Z,6.11
2022-10-02T03:49:55.712Z,7.88
2022-10-02T03:50:29.310Z,5.47
2022-10-02T03:50:59.648Z,2.89
2022-10-02T03:51:32.046Z,9.33
2022-10-02T03:51:54.748Z,4.66
2022-10-02T03:52:17.162Z,3.54
2022-10-02T03:52:51.973Z,5.47
2022-10-02T03:53:24.394Z,4.66
2022-10-02T03:53:56.345Z,6.43
2022-10-02T03:54:27.961Z,8.69
2022-10-02T03:55:01.098Z,13.67
2022-10-02T03:55:31.682Z,8.20
2022-10-02T03:55:54.540Z,8.20
2022-10-02T03:56:18.171Z,6.11
2022-10-02T03:56:51.716Z,5.79
2022-10-02T03:57:23.840Z,7.88
2022-10-02T03:57:55.950Z,6.92
2022-10-02T03:58:28.402Z,6.92
2022-10-02T03:58:59.804Z,1.12
2022-10-02T03:59:32.200Z,6.43
2022-10-02T03:59:54.798Z,5.79
2022-10-02T04:00:17.468Z,8.20
2022-10-02T04:00:52.383Z,9.01
2022-10-02T04:01:23.984Z,8.20
2022-10-02T04:01:56.018Z,3.54
2022-10-02T04:02:28.048Z,2.89
2022-10-02T04:03:01.987Z,3.54
2022-10-02T04:03:32.249Z,6.11
2022-10-02T04:03:54.992Z,4.66
2022-10-02T04:04:17.688Z,1.77
2022-10-02T04:04:53.124Z,1.44
2022-10-02T04:05:23.923Z,3.54
2022-10-02T04:05:56.842Z,4.66
2022-10-02T04:06:28.229Z,3.54
2022-10-02T04:06:59.896Z,3.54
2022-10-02T04:07:32.481Z,.64
2022-10-02T04:07:55.206Z,4.66
2022-10-02T04:08:17.564Z,6.11
2022-10-02T04:08:51.704Z,4.98
2022-10-02T04:09:23.848Z,2.57
2022-10-02T04:09:56.424Z,.64
2022-10-02T04:10:27.909Z,0
2022-10-02T04:10:59.881Z,1.44
2022-10-02T04:11:31.979Z,1.44
2022-10-02T04:11:54.697Z,1.77
2022-10-02T04:12:17.440Z,.32
2022-10-02T04:12:51.757Z,1.44
2022-10-02T04:13:25.107Z,5.47
2022-10-02T04:13:55.773Z,4.02
2022-10-02T04:14:27.969Z,4.02
2022-10-02T04:15:00.493Z,4.98
2022-10-02T04:15:31.901Z,4.02
2022-10-02T04:15:54.675Z,2.89
2022-10-02T04:16:16.918Z,5.79
2022-10-02T04:16:52.758Z,2.89
2022-10-02T04:17:24.182Z,9.01
2022-10-02T04:17:58.766Z,6.11
2022-10-02T04:18:28.174Z,9.01
2022-10-02T04:19:00.566Z,12.55
2022-10-02T04:19:31.939Z,4.98
2022-10-02T04:19:54.884Z,9.33
2022-10-02T04:20:18.047Z,13.03
2022-10-02T04:20:51.957Z,11.10
2022-10-02T04:21:24.011Z,10.78
2022-10-02T04:21:55.870Z,7.24
2022-10-02T04:22:27.795Z,9.33
2022-10-02T04:22:59.735Z,11.90
2022-10-02T04:23:31.845Z,8.20
2022-10-02T04:23:54.548Z,10.46
2022-10-02T04:24:17.048Z,7.88
2022-10-02T04:24:52.419Z,7.24
2022-10-02T04:25:23.816Z,2.09
2022-10-02T04:25:56.250Z,0
2022-10-02T04:26:27.676Z,2.89
2022-10-02T04:27:00.089Z,6.11
2022-10-02T04:27:31.720Z,2.89
2022-10-02T04:27:54.530Z,5.47
2022-10-02T04:28:17.410Z,1.77
2022-10-02T04:28:52.636Z,.32
2022-10-02T04:29:24.404Z,5.79
2022-10-02T04:29:56.206Z,.32
2022-10-02T04:30:28.440Z,2.09
2022-10-02T04:30:59.850Z,1.44
2022-10-02T04:31:32.088Z,6.11
2022-10-02T04:31:55.055Z,2.09
2022-10-02T04:32:17.184Z,.64
2022-10-02T04:32:52.567Z,2.89
2022-10-02T04:33:23.700Z,5.47
2022-10-02T04:33:55.796Z,1.44
2022-10-02T04:34:27.902Z,1.12
2022-10-02T04:34:59.816Z,3.54
2022-10-02T04:35:31.745Z,1.44
2022-10-02T04:35:54.503Z,.64
2022-10-02T04:36:17.948Z,2.09
2022-10-02T04:36:51.582Z,1.77
2022-10-02T04:37:24.008Z,.32
2022-10-02T04:37:55.744Z,2.57
2022-10-02T04:38:28.420Z,.32
2022-10-02T04:38:59.548Z,1.44
2022-10-02T04:39:32.615Z,1.44
2022-10-02T04:39:55.329Z,1.44
2022-10-02T04:40:17.537Z,0
2022-10-02T04:40:52.262Z,4.02
2022-10-02T04:41:23.749Z,2.09
2022-10-02T04:41:57.113Z,4.02
2022-10-02T04:42:28.253Z,1.12
2022-10-02T04:43:00.001Z,2.09
2022-10-02T04:43:31.808Z,4.34
2022-10-02T04:43:54.615Z,4.02
2022-10-02T04:44:17.024Z,5.47
2022-10-02T04:44:51.690Z,3.54
2022-10-02T04:45:24.053Z,7.88
2022-10-02T04:45:55.950Z,7.56
2022-10-02T04:46:27.653Z,8.69
2022-10-02T04:46:59.594Z,6.11
2022-10-02T04:47:32.462Z,5.47
2022-10-02T04:47:55.187Z,7.24
2022-10-02T04:48:17.897Z,6.43
2022-10-02T04:48:52.108Z,4.02
2022-10-02T04:49:23.731Z,6.11
2022-10-02T04:49:55.709Z,5.47
2022-10-02T04:50:27.723Z,8.69
2022-10-02T04:50:59.791Z,7.88
2022-10-02T04:51:31.792Z,6.92
2022-10-02T04:51:54.597Z,7.56
2022-10-02T04:52:16.995Z,7.88
2022-10-02T04:52:51.886Z,4.66
2022-10-02T04:53:23.929Z,5.79
2022-10-02T04:53:55.725Z,8.20
2022-10-02T04:54:28.504Z,6.43
2022-10-02T04:54:59.555Z,4.02
2022-10-02T04:55:32.190Z,4.66
2022-10-02T04:55:55.127Z,5.47
2022-10-02T04:56:17.848Z,4.98
2022-10-02T04:56:51.886Z,4.98
2022-10-02T04:57:23.899Z,4.98
2022-10-02T04:57:55.838Z,9.01
2022-10-02T04:58:27.714Z,7.56
2022-10-02T04:58:59.564Z,6.11
2022-10-02T04:59:32.087Z,6.11
2022-10-02T04:59:54.885Z,6.11
2022-10-02T05:00:17.899Z,4.66
2022-10-02T05:00:51.965Z,5.47
2022-10-02T05:01:23.981Z,8.20
2022-10-02T05:01:56.412Z,7.24
2022-10-02T05:02:28.205Z,5.47
2022-10-02T05:02:59.761Z,4.02
2022-10-02T05:03:32.248Z,8.69
2022-10-02T05:03:54.902Z,5.47
2022-10-02T05:04:17.766Z,9.65
2022-10-02T05:04:52.678Z,6.11
2022-10-02T05:05:25.262Z,6.43
2022-10-02T05:05:55.710Z,4.66
2022-10-02T05:06:27.880Z,7.88
2022-10-02T05:07:00.401Z,7.56
2022-10-02T05:07:31.678Z,7.24
2022-10-02T05:07:54.428Z,4.34
2022-10-02T05:08:16.889Z,.32
2022-10-02T05:08:51.519Z,1.44
2022-10-02T05:09:28.454Z,.64
2022-10-02T05:09:55.779Z,.64
2022-10-02T05:10:28.130Z,.32
2022-10-02T05:10:59.954Z,2.09
2022-10-02T05:11:32.107Z,.32
2022-10-02T05:11:54.695Z,1.77
2022-10-02T05:12:17.097Z,.32
2022-10-02T05:12:57.458Z,.64
2022-10-02T05:13:24.038Z,1.44
2022-10-02T05:13:56.655Z,0
2022-10-02T05:14:28.358Z,2.09
2022-10-02T05:15:00.549Z,1.44
2022-10-02T05:15:31.855Z,2.09
2022-10-02T05:15:54.596Z,1.12
2022-10-02T05:16:17.578Z,3.54
2022-10-02T05:16:52.090Z,.32
2022-10-02T05:17:23.872Z,.32
2022-10-02T05:17:56.025Z,0
2022-10-02T05:18:27.766Z,0
2022-10-02T05:18:59.896Z,1.77
2022-10-02T05:19:31.965Z,1.12
2022-10-02T05:19:54.653Z,.32
2022-10-02T05:20:17.195Z,0
2022-10-02T05:20:52.507Z,.64
2022-10-02T05:21:23.754Z,1.44
2022-10-02T05:21:55.816Z,1.44
2022-10-02T05:22:27.640Z,.64
2022-10-02T05:23:00.529Z,2.89
2022-10-02T05:23:32.047Z,2.09
2022-10-02T05:23:54.685Z,.32
2022-10-02T05:24:17.153Z,.64
2022-10-02T05:24:51.653Z,.64
2022-10-02T05:25:23.683Z,4.34
2022-10-02T05:25:55.755Z,2.09
2022-10-02T05:26:28.640Z,1.12
2022-10-02T05:26:59.753Z,1.77
2022-10-02T05:27:32.165Z,1.77
2022-10-02T05:27:57.363Z,1.12
2022-10-02T05:28:17.487Z,1.12
2022-10-02T05:28:52.139Z,3.54
2022-10-02T05:29:24.123Z,4.66
2022-10-02T05:29:56.387Z,2.09
2022-10-02T05:30:27.895Z,.32
2022-10-02T05:31:00.150Z,2.57
2022-10-02T05:31:31.970Z,3.54
2022-10-02T05:31:54.886Z,5.47
2022-10-02T05:32:18.002Z,3.21
2022-10-02T05:32:51.838Z,2.89
2022-10-02T05:33:24.131Z,1.44
2022-10-02T05:33:55.809Z,1.12
2022-10-02T05:34:28.235Z,1.44
2022-10-02T05:34:59.661Z,0
2022-10-02T05:35:34.066Z,1.12
2022-10-02T05:35:56.848Z,1.44
2022-10-02T05:36:19.477Z,1.44
2022-10-02T05:36:52.096Z,0
2022-10-02T05:37:23.861Z,.32
2022-10-02T05:37:55.777Z,1.77
2022-10-02T05:38:27.878Z,1.44
2022-10-02T05:38:59.928Z,2.09
2022-10-02T05:39:33.394Z,1.44
2022-10-02T05:39:56.216Z,5.79
2022-10-02T05:40:18.380Z,.64
2022-10-02T05:40:52.772Z,0
2022-10-02T05:41:23.948Z,1.44
2022-10-02T05:41:55.678Z,.32
2022-10-02T05:42:27.824Z,1.44
2022-10-02T05:42:59.934Z,.64
2022-10-02T05:43:31.834Z,7.24
2022-10-02T05:43:54.583Z,4.34
2022-10-02T05:44:16.956Z,2.89
2022-10-02T05:44:51.944Z,0
2022-10-02T05:45:23.862Z,1.44
2022-10-02T05:45:56.028Z,3.21
2022-10-02T05:46:27.740Z,3.54
2022-10-02T05:46:59.955Z,2.09
2022-10-02T05:47:31.684Z,0
2022-10-02T05:47:54.500Z,1.12
2022-10-02T05:48:16.891Z,6.43
2022-10-02T05:48:51.871Z,7.24
2022-10-02T05:49:25.158Z,3.54
2022-10-02T05:49:56.469Z,3.21
2022-10-02T05:50:28.131Z,2.09
2022-10-02T05:50:59.849Z,3.21
2022-10-02T05:51:31.703Z,2.89
2022-10-02T05:51:54.572Z,2.09
2022-10-02T05:52:16.976Z,1.44
2022-10-02T05:52:51.941Z,.32
2022-10-02T05:53:24.106Z,0
2022-10-02T05:53:56.007Z,3.21
2022-10-02T05:54:28.134Z,0
2022-10-02T05:54:59.860Z,.32
2022-10-02T05:55:32.103Z,1.12
2022-10-02T05:55:54.614Z,.32
2022-10-02T05:56:18.917Z,1.12
2022-10-02T05:56:51.811Z,.32
2022-10-02T05:57:23.978Z,1.12
2022-10-02T05:57:55.785Z,2.57
2022-10-02T05:58:27.793Z,1.77
2022-10-02T05:58:59.689Z,.64
2022-10-02T05:59:32.297Z,1.12
2022-10-02T05:59:55.060Z,1.44
2022-10-02T06:00:17.400Z,1.12
2022-10-02T06:00:52.729Z,3.54
2022-10-02T06:01:23.905Z,1.77
2022-10-02T06:01:56.806Z,1.44
2022-10-02T06:02:27.909Z,2.89
2022-10-02T06:03:00.207Z,2.09
2022-10-02T06:03:31.782Z,2.09
2022-10-02T06:03:54.379Z,.32
2022-10-02T06:04:17.047Z,1.44
2022-10-02T06:04:51.806Z,1.77
2022-10-02T06:05:23.827Z,.64
2022-10-02T06:05:56.312Z,.32
2022-10-02T06:06:27.848Z,1.77
2022-10-02T06:06:59.786Z,3.54
2022-10-02T06:07:32.268Z,1.12
2022-10-02T06:07:54.995Z,2.89
2022-10-02T06:08:17.721Z,1.44
2022-10-02T06:08:51.906Z,2.57
2022-10-02T06:09:24.961Z,1.12
2022-10-02T06:09:56.062Z,.32
2022-10-02T06:10:30.129Z,2.57
2022-10-02T06:11:00.420Z,7.88
2022-10-02T06:11:31.709Z,3.54
2022-10-02T06:11:54.490Z,1.12
2022-10-02T06:12:17.769Z,3.54
2022-10-02T06:12:51.731Z,2.09
2022-10-02T06:13:26.648Z,0
2022-10-02T06:13:55.893Z,2.09
2022-10-02T06:14:28.189Z,2.89
2022-10-02T06:15:02.306Z,1.12
2022-10-02T06:15:32.694Z,1.12
2022-10-02T06:15:55.454Z,3.21
2022-10-02T06:16:17.655Z,2.09
2022-10-02T06:16:52.790Z,1.44
2022-10-02T06:17:24.466Z,5.47
2022-10-02T06:17:55.856Z,1.12
2022-10-02T06:18:27.845Z,2.57
2022-10-02T06:19:00.339Z,1.77
2022-10-02T06:19:31.966Z,.32
2022-10-02T06:19:54.756Z,2.89
2022-10-02T06:20:17.531Z,1.12
2022-10-02T06:20:51.959Z,.64
2022-10-02T06:21:23.756Z,1.12
2022-10-02T06:21:55.809Z,1.44
2022-10-02T06:22:27.794Z,2.09
2022-10-02T06:23:00.134Z,1.44
2022-10-02T06:23:32.117Z,0
2022-10-02T06:23:54.531Z,.32
2022-10-02T06:24:16.952Z,1.77
2022-10-02T06:25:00.472Z,3.21
2022-10-02T06:25:22.575Z,2.09
2022-10-02T06:25:55.685Z,1.12
2022-10-02T06:26:27.681Z,1.77
2022-10-02T06:27:00.542Z,0
2022-10-02T06:27:31.548Z,2.57
2022-10-02T06:27:55.103Z,1.44
2022-10-02T06:28:17.608Z,1.12
2022-10-02T06:28:53.874Z,5.79
2022-10-02T06:29:27.059Z,1.44
2022-10-02T06:29:55.730Z,.32
2022-10-02T06:30:27.835Z,0
2022-10-02T06:31:00.219Z,.32
2022-10-02T06:31:32.258Z,1.44
2022-10-02T06:31:54.940Z,3.54
2022-10-02T06:32:18.051Z,4.02
2022-10-02T06:32:57.178Z,2.89
2022-10-02T06:33:19.388Z,3.21
2022-10-02T06:33:55.824Z,.64
2022-10-02T06:34:27.717Z,1.44
2022-10-02T06:34:59.569Z,5.47
2022-10-02T06:35:31.646Z,3.21
2022-10-02T06:35:54.447Z,.64
2022-10-02T06:36:16.678Z,5.79
2022-10-02T06:36:51.755Z,2.09
2022-10-02T06:37:23.572Z,2.57
2022-10-02T06:37:55.704Z,2.09
2022-10-02T06:38:27.627Z,1.12
2022-10-02T06:38:59.717Z,2.09
2022-10-02T06:39:31.840Z,1.12
2022-10-02T06:39:54.605Z,.64
2022-10-02T06:40:17.071Z,2.09
2022-10-02T06:40:51.725Z,1.44
2022-10-02T06:41:23.633Z,0
2022-10-02T06:41:55.742Z,.64
2022-10-02T06:42:27.598Z,2.89